createdAt,value
2023-08-05T00:01:51.855Z,5.30
2023-08-05T00:04:19.287Z,6.13
2023-08-05T00:06:46.476Z,7.87
2023-08-05T00:09:13.557Z,6.87
2023-08-05T00:11:43.637Z,8.00
2023-08-05T00:14:11.787Z,7.33
2023-08-05T00:16:40.867Z,5.50
2023-08-05T00:19:11.030Z,6.90
2023-08-05T00:21:41.180Z,5.47
2023-08-05T00:24:12.314Z,5.80
2023-08-05T00:26:45.487Z,7.80
2023-08-05T00:29:12.587Z,5.50
2023-08-05T00:31:41.694Z,6.20
2023-08-05T00:34:08.924Z,6.80
2023-08-05T00:36:40.087Z,7.97
2023-08-05T00:39:08.122Z,8.00
2023-08-05T00:41:38.271Z,8.77
2023-08-05T00:44:05.409Z,6.47
2023-08-05T00:46:33.657Z,6.80
2023-08-05T00:49:04.260Z,7.13
2023-08-05T00:51:31.630Z,8.40
2023-08-05T00:53:58.927Z,6.80
2023-08-05T00:56:26.072Z,7.00
2023-08-05T00:58:54.930Z,7.03
2023-08-05T01:01:38.346Z,8.13
2023-08-05T01:04:11.396Z,8.90
2023-08-05T01:06:38.869Z,7.63
2023-08-05T01:09:12.106Z,6.57
2023-08-05T01:11:39.266Z,6.93
2023-08-05T01:14:09.267Z,7.10
2023-08-05T01:16:36.380Z,6.80
2023-08-05T01:19:05.825Z,7.73
2023-08-05T01:21:38.844Z,7.63
2023-08-05T01:24:30.677Z,7.10
2023-08-05T01:27:00.877Z,7.97
2023-08-05T01:29:28.300Z,7.07
2023-08-05T01:31:57.987Z,9.13
2023-08-05T01:34:32.741Z,8.30
2023-08-05T01:36:59.832Z,10.77
2023-08-05T01:39:29.915Z,9.27
2023-08-05T01:42:00.090Z,7.77
2023-08-05T01:44:31.571Z,8.13
2023-08-05T01:47:00.729Z,7.10
2023-08-05T01:49:28.852Z,9.50
2023-08-05T01:51:56.231Z,8.13
2023-08-05T01:54:23.187Z,7.93
2023-08-05T01:56:51.570Z,8.10
2023-08-05T01:59:18.908Z,7.90
2023-08-05T02:01:48.310Z,7.87
2023-08-05T02:04:17.554Z,7.90
2023-08-05T02:06:47.883Z,9.80
2023-08-05T02:09:15.278Z,9.20
2023-08-05T02:11:45.498Z,8.43
2023-08-05T02:14:13.831Z,8.27
2023-08-05T02:16:43.980Z,12.00
2023-08-05T02:19:12.634Z,13.60
2023-08-05T02:21:40.796Z,10.07
2023-08-05T02:24:11.203Z,8.00
2023-08-05T02:26:40.537Z,9.17
2023-08-05T02:29:07.539Z,8.17
2023-08-05T02:31:34.665Z,11.23
2023-08-05T02:34:02.810Z,9.23
2023-08-05T02:36:30.843Z,9.20
2023-08-05T02:39:04.218Z,8.87
2023-08-05T02:41:34.357Z,10.07
2023-08-05T02:44:03.588Z,11.50
2023-08-05T02:46:36.686Z,9.13
2023-08-05T02:49:03.816Z,8.33
2023-08-05T02:51:33.873Z,8.83
2023-08-05T02:54:03.032Z,9.93
2023-08-05T02:56:35.481Z,12.17
2023-08-05T02:59:05.743Z,11.53
2023-08-05T03:01:39.054Z,12.57
2023-08-05T03:04:06.186Z,8.80
2023-08-05T03:06:33.286Z,9.57
2023-08-05T03:09:04.570Z,9.67
2023-08-05T03:11:33.728Z,9.53
2023-08-05T03:14:03.500Z,9.60
2023-08-05T03:16:33.919Z,11.10
2023-08-05T03:19:04.145Z,10.23
2023-08-05T03:21:32.226Z,13.67
2023-08-05T03:23:59.252Z,9.67
2023-08-05T03:26:28.541Z,12.50
2023-08-05T03:28:56.642Z,14.53
2023-08-05T03:31:26.849Z,10.57
2023-08-05T03:33:54.040Z,12.37
2023-08-05T03:36:24.182Z,11.73
2023-08-05T03:38:51.378Z,14.93
2023-08-05T03:41:21.458Z,12.80
2023-08-05T03:43:51.538Z,13.57
2023-08-05T03:46:20.621Z,12.70
2023-08-05T03:48:49.979Z,12.23
2023-08-05T03:51:19.060Z,13.30
2023-08-05T03:53:48.250Z,11.40
2023-08-05T03:56:15.381Z,10.97
2023-08-05T03:58:47.700Z,11.60
2023-08-05T04:01:23.181Z,13.37
2023-08-05T04:03:51.517Z,14.27
2023-08-05T04:06:21.665Z,14.83
2023-08-05T04:08:55.509Z,12.00
2023-08-05T04:11:23.684Z,16.20
2023-08-05T04:13:54.137Z,13.53
2023-08-05T04:16:24.539Z,12.97
2023-08-05T04:18:53.700Z,11.90
2023-08-05T04:21:24.701Z,10.60
2023-08-05T04:23:55.934Z,11.93
2023-08-05T04:26:26.060Z,13.83
2023-08-05T04:28:56.525Z,12.80
2023-08-05T04:31:26.767Z,12.17
2023-08-05T04:33:54.913Z,11.67
2023-08-05T04:36:25.013Z,12.60
2023-08-05T04:38:55.134Z,10.43
2023-08-05T04:41:22.162Z,10.17
2023-08-05T04:43:49.511Z,12.67
2023-08-05T04:46:19.665Z,12.13
2023-08-05T04:48:49.769Z,11.47
2023-08-05T04:51:16.813Z,10.63
2023-08-05T04:53:47.123Z,10.40
2023-08-05T04:56:17.780Z,11.20
2023-08-05T04:58:45.825Z,12.33
2023-08-05T05:01:14.972Z,10.07
2023-08-05T05:03:42.138Z,11.17
2023-08-05T05:06:09.222Z,12.90
2023-08-05T05:08:37.430Z,10.33
2023-08-05T05:11:11.090Z,13.83
2023-08-05T05:13:45.121Z,14.23
2023-08-05T05:16:12.468Z,12.83
2023-08-05T05:18:40.540Z,10.17
2023-08-05T05:21:07.628Z,15.33
2023-08-05T05:23:34.927Z,11.03
2023-08-05T05:26:05.063Z,12.27
2023-08-05T05:28:34.198Z,12.07
2023-08-05T05:31:04.661Z,9.40
2023-08-05T05:33:34.986Z,10.00
2023-08-05T05:36:05.227Z,14.03
2023-08-05T05:38:35.372Z,9.73
2023-08-05T05:41:05.566Z,12.07
2023-08-05T05:43:32.670Z,8.40
2023-08-05T05:45:59.773Z,9.60
2023-08-05T05:48:29.592Z,16.60
2023-08-05T05:51:00.148Z,9.50
2023-08-05T05:53:30.313Z,10.17
2023-08-05T05:56:00.744Z,10.80
2023-08-05T05:58:29.233Z,12.50
2023-08-05T06:00:58.573Z,14.93
2023-08-05T06:03:25.907Z,7.60
2023-08-05T06:05:54.450Z,16.07
2023-08-05T06:08:21.876Z,13.03
2023-08-05T06:10:49.950Z,10.33
2023-08-05T06:13:20.217Z,10.73
2023-08-05T06:15:54.979Z,13.23
2023-08-05T06:18:22.791Z,11.30
2023-08-05T06:20:50.301Z,9.20
2023-08-05T06:23:18.448Z,10.60
2023-08-05T06:25:48.653Z,8.43
2023-08-05T06:28:17.733Z,8.57
2023-08-05T06:30:48.164Z,10.47
2023-08-05T06:33:15.303Z,10.93
2023-08-05T06:35:45.384Z,12.47
2023-08-05T06:38:15.586Z,10.03
2023-08-05T06:40:47.265Z,9.67
2023-08-05T06:43:14.502Z,13.30
2023-08-05T06:45:41.621Z,11.37
2023-08-05T06:48:14.685Z,10.07
2023-08-05T06:50:44.890Z,8.67
2023-08-05T06:53:13.003Z,7.17
2023-08-05T06:55:40.095Z,8.33
2023-08-05T06:58:09.322Z,10.87
2023-08-05T07:00:38.420Z,11.80
2023-08-05T07:03:06.489Z,11.43
2023-08-05T07:05:35.393Z,10.50
2023-08-05T07:08:09.633Z,8.37
2023-08-05T07:10:37.932Z,9.17
2023-08-05T07:13:07.200Z,8.23
2023-08-05T07:15:38.344Z,15.10
2023-08-05T07:18:12.462Z,8.83
2023-08-05T07:20:41.860Z,8.70
2023-08-05T07:23:11.881Z,12.97
2023-08-05T07:25:41.960Z,9.93
2023-08-05T07:28:10.107Z,11.57
2023-08-05T07:30:40.654Z,15.30
2023-08-05T07:33:13.026Z,12.90
2023-08-05T07:35:42.068Z,9.07
2023-08-05T07:38:11.824Z,12.20
2023-08-05T07:40:41.640Z,6.87
2023-08-05T07:43:10.733Z,13.57
2023-08-05T07:45:39.218Z,10.53
2023-08-05T07:48:11.690Z,9.10
2023-08-05T07:50:39.737Z,12.60
2023-08-05T07:53:10.441Z,8.70
2023-08-05T07:55:38.772Z,10.33
2023-08-05T07:58:08.900Z,9.73
2023-08-05T08:00:41.046Z,10.60
2023-08-05T08:03:10.212Z,11.97
2023-08-05T08:05:40.315Z,10.77
2023-08-05T08:08:10.580Z,10.17
2023-08-05T08:10:37.514Z,8.93
2023-08-05T08:13:06.547Z,9.57
2023-08-05T08:15:36.641Z,12.93
2023-08-05T08:18:05.227Z,10.93
2023-08-05T08:20:35.673Z,11.23
2023-08-05T08:23:05.811Z,11.60
2023-08-05T08:25:36.498Z,13.03
2023-08-05T08:28:05.519Z,11.03
2023-08-05T08:30:35.627Z,8.20
2023-08-05T08:33:04.847Z,9.73
2023-08-05T08:35:32.997Z,11.03
2023-08-05T08:38:02.448Z,6.87
2023-08-05T08:40:29.547Z,7.43
2023-08-05T08:42:57.720Z,9.70
2023-08-05T08:45:33.901Z,5.03
2023-08-05T08:48:06.158Z,6.47
2023-08-05T08:50:35.375Z,7.80
2023-08-05T08:53:03.000Z,6.80
2023-08-05T08:55:31.659Z,8.00
2023-08-05T08:57:58.902Z,6.90
2023-08-05T09:00:27.670Z,6.00
2023-08-05T09:02:55.320Z,5.00
2023-08-05T09:05:24.584Z,7.77
2023-08-05T09:07:52.943Z,5.20
2023-08-05T09:10:23.408Z,4.57
2023-08-05T09:12:51.677Z,7.63
2023-08-05T09:15:22.392Z,4.93
2023-08-05T09:17:50.482Z,6.90
2023-08-05T09:20:22.759Z,7.80
2023-08-05T09:22:57.559Z,5.13
2023-08-05T09:25:25.783Z,6.60
2023-08-05T09:27:54.720Z,5.60
2023-08-05T09:30:28.118Z,4.53
2023-08-05T09:32:57.228Z,6.90
2023-08-05T09:35:30.408Z,5.23
2023-08-05T09:38:01.598Z,6.03
2023-08-05T09:40:37.849Z,4.60
2023-08-05T09:43:09.323Z,8.47
2023-08-05T09:45:40.511Z,6.23
2023-08-05T09:48:10.313Z,4.27
2023-08-05T09:50:39.451Z,9.07
2023-08-05T09:53:11.853Z,5.50
2023-08-05T09:55:40.100Z,8.53
2023-08-05T09:58:11.215Z,6.83
2023-08-05T10:00:44.639Z,7.43
2023-08-05T10:03:15.207Z,5.47
2023-08-05T10:05:46.560Z,6.87
2023-08-05T10:08:15.369Z,6.30
2023-08-05T10:10:45.649Z,6.37
2023-08-05T10:13:21.842Z,7.43
2023-08-05T10:15:55.681Z,6.13
2023-08-05T10:18:27.164Z,5.53
2023-08-05T10:20:57.297Z,8.90
2023-08-05T10:23:34.415Z,9.80
2023-08-05T10:26:03.279Z,7.83
2023-08-05T10:28:36.553Z,7.03
2023-08-05T10:31:22.963Z,9.27
2023-08-05T10:34:12.010Z,9.33
2023-08-05T10:36:43.850Z,10.23
2023-08-05T10:39:42.085Z,12.47
2023-08-05T10:42:38.653Z,6.50
2023-08-05T10:45:09.842Z,8.30
2023-08-05T10:47:47.912Z,9.07
2023-08-05T10:50:16.439Z,8.77
2023-08-05T10:52:52.501Z,8.10
2023-08-05T10:55:28.818Z,7.97
2023-08-05T10:57:55.947Z,9.93
2023-08-05T11:00:24.433Z,7.57
2023-08-05T11:03:25.084Z,8.87
2023-08-05T11:06:05.269Z,7.70
2023-08-05T11:08:35.568Z,8.80
2023-08-05T11:11:16.041Z,6.83
2023-08-05T11:13:48.137Z,8.37
2023-08-05T11:16:19.406Z,8.90
2023-08-05T11:18:56.091Z,7.63
2023-08-05T11:21:24.727Z,10.07
2023-08-05T11:23:54.804Z,6.80
2023-08-05T11:26:26.151Z,8.20
2023-08-05T11:29:01.017Z,5.37
2023-08-05T11:31:29.387Z,6.20
2023-08-05T11:33:58.591Z,6.73
2023-08-05T11:36:29.873Z,5.37
2023-08-05T11:39:01.921Z,5.50
2023-08-05T11:41:32.453Z,10.23
2023-08-05T11:44:06.756Z,6.00
2023-08-05T11:46:48.133Z,6.90
2023-08-05T11:49:24.015Z,6.23
2023-08-05T11:51:55.076Z,5.97
2023-08-05T11:54:35.738Z,6.57
2023-08-05T11:57:19.369Z,4.47
2023-08-05T11:59:49.560Z,8.10
2023-08-05T12:02:19.703Z,7.83
2023-08-05T12:05:02.511Z,7.63
2023-08-05T12:07:42.152Z,8.20
2023-08-05T12:10:13.413Z,5.43
2023-08-05T12:12:45.044Z,9.07
2023-08-05T12:15:19.149Z,7.90
2023-08-05T12:17:50.272Z,7.93
2023-08-05T12:20:24.288Z,7.13
2023-08-05T12:22:55.476Z,7.67
2023-08-05T12:25:28.839Z,6.30
2023-08-05T12:27:59.957Z,11.40
2023-08-05T12:30:30.504Z,10.13
2023-08-05T12:32:59.870Z,8.10
2023-08-05T12:35:27.395Z,6.47
2023-08-05T12:37:58.837Z,7.67
2023-08-05T12:40:26.082Z,6.83
2023-08-05T12:42:56.297Z,6.40
2023-08-05T12:45:24.545Z,4.60
2023-08-05T12:47:54.752Z,3.97
2023-08-05T12:50:22.795Z,4.20
2023-08-05T12:52:52.990Z,3.53
2023-08-05T12:55:20.236Z,5.23
2023-08-05T12:57:50.632Z,3.10
2023-08-05T13:00:17.879Z,3.30
2023-08-05T13:02:47.516Z,2.30
2023-08-05T13:05:15.991Z,3.80
2023-08-05T13:07:46.312Z,4.47
2023-08-05T13:10:13.456Z,3.40
2023-08-05T13:12:40.512Z,4.77
2023-08-05T13:15:13.614Z,3.80
2023-08-05T13:17:43.713Z,3.03
2023-08-05T13:20:13.017Z,3.03
2023-08-05T13:22:41.219Z,5.50
2023-08-05T13:25:14.308Z,2.80
2023-08-05T13:27:45.613Z,3.83
2023-08-05T13:30:13.939Z,4.23
2023-08-05T13:32:40.945Z,3.93
2023-08-05T13:35:09.270Z,4.10
2023-08-05T13:37:39.381Z,3.00
2023-08-05T13:40:07.372Z,3.20
2023-08-05T13:42:34.554Z,4.00
2023-08-05T13:45:05.165Z,3.70
2023-08-05T13:47:35.364Z,4.13
2023-08-05T13:50:05.027Z,4.70
2023-08-05T13:52:35.132Z,3.53
2023-08-05T13:55:04.441Z,4.47
2023-08-05T13:57:33.467Z,4.47
2023-08-05T14:00:00.857Z,4.93
2023-08-05T14:02:29.350Z,6.43
2023-08-05T14:04:56.913Z,5.17
2023-08-05T14:07:24.951Z,4.07
2023-08-05T14:09:54.454Z,4.53
2023-08-05T14:12:24.388Z,3.80
2023-08-05T14:14:54.496Z,4.27
2023-08-05T14:17:22.903Z,5.33
2023-08-05T14:19:50.645Z,7.73
2023-08-05T14:22:20.941Z,4.43
2023-08-05T14:24:50.110Z,3.83
2023-08-05T14:27:19.195Z,3.37
2023-08-05T14:29:50.384Z,5.07
2023-08-05T14:32:21.831Z,6.23
2023-08-05T14:34:58.953Z,5.90
2023-08-05T14:37:34.879Z,4.07
2023-08-05T14:40:05.737Z,5.53
2023-08-05T14:42:36.565Z,6.07
2023-08-05T14:45:09.856Z,4.30
2023-08-05T14:47:39.098Z,4.80
2023-08-05T14:50:07.178Z,5.87
2023-08-05T14:52:34.578Z,4.50
2023-08-05T14:55:04.173Z,6.87
2023-08-05T14:57:34.470Z,7.97
2023-08-05T15:00:02.855Z,3.20
2023-08-05T15:02:30.438Z,4.73
2023-08-05T15:04:58.080Z,7.60
2023-08-05T15:07:28.347Z,4.50
2023-08-05T15:09:55.650Z,4.40
2023-08-05T15:12:29.241Z,4.00
2023-08-05T15:14:57.485Z,5.23
2023-08-05T15:17:24.699Z,4.60
2023-08-05T15:19:55.035Z,3.57
2023-08-05T15:22:26.514Z,5.70
2023-08-05T15:24:57.528Z,4.70
2023-08-05T15:27:25.066Z,4.17
2023-08-05T15:29:58.672Z,4.37
2023-08-05T15:32:26.894Z,4.20
2023-08-05T15:34:55.388Z,4.00
2023-08-05T15:37:23.938Z,5.33
2023-08-05T15:39:51.086Z,8.30
2023-08-05T15:42:19.366Z,5.57
2023-08-05T15:44:47.147Z,4.00
2023-08-05T15:47:15.353Z,3.90
2023-08-05T15:49:42.827Z,5.13
2023-08-05T15:52:11.004Z,3.80
2023-08-05T15:54:38.519Z,4.23
2023-08-05T15:57:08.808Z,3.53
2023-08-05T15:59:38.085Z,3.87
2023-08-05T16:02:06.204Z,6.30
2023-08-05T16:04:38.243Z,6.23
2023-08-05T16:07:07.325Z,5.80
2023-08-05T16:09:35.085Z,4.87
2023-08-05T16:12:04.104Z,3.50
2023-08-05T16:14:31.469Z,3.57
2023-08-05T16:16:59.383Z,3.20
2023-08-05T16:19:27.835Z,5.00
2023-08-05T16:21:57.627Z,3.73
2023-08-05T16:24:26.277Z,4.10
2023-08-05T16:26:55.456Z,4.43
2023-08-05T16:29:24.931Z,4.10
2023-08-05T16:31:52.351Z,4.27
2023-08-05T16:34:21.011Z,4.23
2023-08-05T16:36:49.238Z,4.27
2023-08-05T16:39:16.954Z,3.80
2023-08-05T16:41:46.102Z,4.20
2023-08-05T16:44:14.351Z,5.53
2023-08-05T16:46:49.027Z,4.47
2023-08-05T16:49:18.499Z,5.37
2023-08-05T16:51:46.384Z,6.23
2023-08-05T16:54:16.716Z,5.00
2023-08-05T16:56:45.275Z,5.20
2023-08-05T16:59:12.748Z,4.80
2023-08-05T17:01:40.038Z,4.80
2023-08-05T17:04:10.612Z,5.00
2023-08-05T17:06:38.241Z,6.33
2023-08-05T17:09:07.757Z,8.30
2023-08-05T17:11:35.620Z,6.40
2023-08-05T17:14:03.953Z,6.10
2023-08-05T17:16:33.693Z,6.83
2023-08-05T17:19:01.419Z,11.50
2023-08-05T17:21:30.230Z,6.77
2023-08-05T17:23:57.659Z,6.43
2023-08-05T17:26:27.050Z,6.00
2023-08-05T17:28:55.289Z,6.93
2023-08-05T17:31:22.540Z,8.73
2023-08-05T17:33:49.898Z,7.77
2023-08-05T17:36:19.408Z,6.70
2023-08-05T17:38:47.960Z,6.07
2023-08-05T17:41:15.367Z,8.27
2023-08-05T17:43:43.714Z,6.97
2023-08-05T17:46:12.393Z,6.47
2023-08-05T17:48:39.784Z,5.83
2023-08-05T17:51:09.236Z,7.13
2023-08-05T17:53:39.646Z,6.30
2023-08-05T17:56:09.266Z,7.93
2023-08-05T17:58:36.548Z,7.20
2023-08-05T18:01:04.112Z,8.40
2023-08-05T18:03:32.969Z,5.83
2023-08-05T18:06:11.774Z,7.10
2023-08-05T18:08:47.830Z,6.30
2023-08-05T18:11:17.426Z,8.07
2023-08-05T18:13:47.855Z,11.33
2023-08-05T18:16:16.534Z,7.57
2023-08-05T18:18:44.861Z,6.20
2023-08-05T18:21:13.552Z,6.83
2023-08-05T18:23:42.102Z,9.23
2023-08-05T18:26:12.803Z,6.57
2023-08-05T18:28:40.815Z,5.43
2023-08-05T18:31:08.966Z,5.97
2023-08-05T18:33:38.155Z,6.17
2023-08-05T18:36:06.938Z,7.43
2023-08-05T18:38:36.110Z,8.67
2023-08-05T18:41:06.647Z,7.13
2023-08-05T18:43:34.577Z,5.40
2023-08-05T18:46:02.191Z,5.37
2023-08-05T18:48:29.636Z,6.23
2023-08-05T18:50:58.370Z,6.37
2023-08-05T18:53:29.044Z,5.80
2023-08-05T18:55:58.511Z,6.17
2023-08-05T18:58:28.845Z,5.37
2023-08-05T19:00:56.263Z,5.43
2023-08-05T19:03:25.614Z,5.97
2023-08-05T19:05:58.505Z,4.40
2023-08-05T19:08:33.196Z,4.67
2023-08-05T19:11:02.382Z,4.43
2023-08-05T19:13:29.556Z,3.43
2023-08-05T19:16:04.273Z,3.07
2023-08-05T19:18:37.829Z,7.17
2023-08-05T19:21:10.074Z,1.43
2023-08-05T19:23:37.854Z,1.70
2023-08-05T19:26:09.294Z,2.03
2023-08-05T19:28:40.092Z,2.87
2023-08-05T19:31:08.951Z,6.33
2023-08-05T19:33:39.393Z,2.20
2023-08-05T19:36:17.052Z,2.37
2023-08-05T19:38:48.615Z,2.30
2023-08-05T19:41:20.405Z,2.10
2023-08-05T19:43:50.872Z,2.17
2023-08-05T19:46:20.939Z,2.20
2023-08-05T19:48:51.427Z,1.87
2023-08-05T19:51:18.830Z,2.20
2023-08-05T19:53:48.295Z,3.07
2023-08-05T19:56:16.894Z,2.03
2023-08-05T19:58:45.663Z,2.20
2023-08-05T20:01:16.440Z,2.10
2023-08-05T20:03:44.891Z,2.10
2023-08-05T20:06:15.262Z,2.30
2023-08-05T20:08:42.820Z,2.00
2023-08-05T20:11:15.302Z,1.77
2023-08-05T20:13:43.440Z,2.40
2023-08-05T20:16:18.261Z,2.03
2023-08-05T20:18:45.862Z,1.67
2023-08-05T20:21:13.340Z,2.00
2023-08-05T20:23:42.053Z,2.17
2023-08-05T20:26:11.189Z,1.80
2023-08-05T20:28:40.306Z,1.90
2023-08-05T20:31:19.376Z,3.03
2023-08-05T20:33:48.617Z,2.00
2023-08-05T20:36:20.897Z,2.20
2023-08-05T20:38:49.952Z,2.17
2023-08-05T20:41:20.988Z,1.90
2023-08-05T20:43:48.552Z,2.73
2023-08-05T20:46:19.598Z,2.17
2023-08-05T20:48:51.305Z,2.20
2023-08-05T20:51:19.941Z,2.53
2023-08-05T20:53:49.444Z,2.30
2023-08-05T20:56:19.881Z,2.30
2023-08-05T20:58:47.448Z,4.90
2023-08-05T21:01:18.022Z,2.80
2023-08-05T21:03:48.650Z,2.20
2023-08-05T21:06:17.761Z,1.77
2023-08-05T21:08:44.859Z,2.00
2023-08-05T21:11:25.420Z,2.33
2023-08-05T21:13:52.424Z,2.30
2023-08-05T21:16:21.536Z,3.47
2023-08-05T21:18:50.667Z,2.90
2023-08-05T21:21:18.025Z,3.30
2023-08-05T21:23:51.376Z,2.40
2023-08-05T21:26:18.580Z,2.73
2023-08-05T21:28:48.723Z,3.13
2023-08-05T21:31:18.927Z,4.20
2023-08-05T21:33:49.212Z,3.57
2023-08-05T21:36:16.367Z,4.30
2023-08-05T21:38:47.028Z,4.87
2023-08-05T21:41:15.056Z,3.67
2023-08-05T21:43:47.236Z,4.13
2023-08-05T21:46:15.743Z,3.53
2023-08-05T21:48:44.924Z,3.60
2023-08-05T21:51:13.105Z,3.03
2023-08-05T21:53:40.177Z,3.60
2023-08-05T21:56:07.529Z,6.10
2023-08-05T21:58:34.781Z,4.33
2023-08-05T22:01:01.797Z,4.10
2023-08-05T22:03:33.989Z,5.63
2023-08-05T22:06:09.505Z,3.87
2023-08-05T22:08:37.624Z,4.83
2023-08-05T22:11:10.880Z,5.43
2023-08-05T22:13:39.942Z,5.73
2023-08-05T22:16:09.338Z,5.83
2023-08-05T22:18:36.681Z,4.33
2023-08-05T22:21:06.004Z,4.73
2023-08-05T22:23:33.121Z,6.73
2023-08-05T22:26:06.528Z,4.03
2023-08-05T22:28:34.680Z,5.53
2023-08-05T22:31:03.025Z,4.80
2023-08-05T22:33:33.393Z,5.07
2023-08-05T22:36:10.556Z,4.60
2023-08-05T22:38:40.771Z,4.93
2023-08-05T22:41:10.882Z,5.30
2023-08-05T22:43:38.906Z,6.43
2023-08-05T22:46:06.173Z,6.37
2023-08-05T22:48:34.200Z,5.50
2023-08-05T22:51:01.669Z,5.43
2023-08-05T22:53:28.848Z,5.63
2023-08-05T22:56:01.633Z,6.50
2023-08-05T22:58:30.231Z,6.17
2023-08-05T23:01:04.879Z,6.73
2023-08-05T23:03:35.203Z,8.60
2023-08-05T23:06:04.340Z,6.13
2023-08-05T23:08:34.465Z,6.07
2023-08-05T23:11:08.268Z,6.90
2023-08-05T23:13:38.539Z,7.87
2023-08-05T23:16:18.517Z,5.37
2023-08-05T23:18:55.272Z,5.23
2023-08-05T23:21:25.389Z,4.73
2023-08-05T23:23:55.732Z,6.27
2023-08-05T23:26:24.906Z,5.43
2023-08-05T23:28:53.797Z,6.07
2023-08-05T23:31:23.070Z,5.63
2023-08-05T23:33:52.154Z,5.33
2023-08-05T23:36:22.304Z,5.37
2023-08-05T23:38:52.406Z,5.87
2023-08-05T23:41:22.689Z,4.87
2023-08-05T23:43:49.904Z,4.80
2023-08-05T23:46:17.988Z,7.23
2023-08-05T23:48:45.098Z,5.70
2023-08-05T23:51:15.281Z,7.27
2023-08-05T23:53:45.623Z,7.03
2023-08-05T23:56:15.727Z,6.23
2023-08-05T23:58:47.448Z,5.70
